Time;durP1;ratioP1;P1;durP2;ratioP2;P2;SDS_P1;SDS_P2;PMS_P1;PMS_P2;Temp;Humidity;BMP_temperature;BMP_pressure;BME280_temperature;BME280_humidity;BME280_pressure;Samples;Min_cycle;Max_cycle;Signal;HPM_P1;HPM_P2
2024/03/18 00:02:23;;;;;;;26.75;4.80;;;11.00;99.90;;;;;;5006441;28;20058;-67
2024/03/18 00:04:50;;;;;;;20.60;4.35;;;11.00;99.90;;;;;;5010085;28;20060;-67
2024/03/18 00:07:16;;;;;;;18.90;4.43;;;11.00;99.90;;;;;;5004484;28;20874;-67
2024/03/18 00:09:42;;;;;;;22.17;4.88;;;11.00;99.90;;;;;;5001619;28;20060;-67
2024/03/18 00:12:08;;;;;;;13.98;3.72;;;11.00;99.90;;;;;;4986851;28;20054;-67
2024/03/18 00:14:34;;;;;;;19.92;3.80;;;11.00;99.90;;;;;;4998561;28;20054;-67
2024/03/18 00:17:00;;;;;;;14.48;3.20;;;11.00;99.90;;;;;;5021604;28;20049;-67
2024/03/18 00:19:25;;;;;;;16.75;3.22;;;10.90;99.90;;;;;;5001422;28;20516;-68
2024/03/18 00:21:51;;;;;;;21.63;4.13;;;10.90;99.90;;;;;;5001461;28;20540;-68
2024/03/18 00:24:20;;;;;;;20.27;3.05;;;10.90;99.90;;;;;;5006818;28;20050;-72
2024/03/18 00:26:46;;;;;;;15.00;3.33;;;10.90;99.90;;;;;;4996277;28;20081;-68
2024/03/18 00:29:12;;;;;;;24.38;3.58;;;10.90;99.90;;;;;;5005544;28;20485;-69
2024/03/18 00:31:38;;;;;;;21.85;3.78;;;10.80;99.90;;;;;;5006887;28;20099;-68
2024/03/18 00:34:04;;;;;;;20.13;4.15;;;10.90;99.90;;;;;;5005861;28;20050;-67
2024/03/18 00:36:30;;;;;;;17.33;2.67;;;10.90;99.90;;;;;;5003834;28;20497;-68
2024/03/18 00:38:56;;;;;;;24.25;4.40;;;10.90;99.90;;;;;;5004528;28;20045;-68
2024/03/18 00:44:06;;;;;;;;;;;10.80;99.90;;;;;;4996143;28;20050;-69
2024/03/18 00:46:32;;;;;;;19.23;4.60;;;10.90;99.90;;;;;;5002890;28;19922;-68
2024/03/18 00:48:58;;;;;;;22.80;3.58;;;10.80;99.90;;;;;;4994029;28;20045;-68
2024/03/18 00:51:24;;;;;;;13.07;3.50;;;10.80;99.90;;;;;;4979983;28;21093;-68
2024/03/18 00:53:50;;;;;;;18.20;4.35;;;10.80;99.90;;;;;;5020848;28;20077;-68
2024/03/18 00:56:16;;;;;;;26.25;5.20;;;10.80;99.90;;;;;;5003937;28;20050;-68
2024/03/18 00:58:42;;;;;;;20.85;5.00;;;10.80;99.90;;;;;;5006702;28;20056;-68
2024/03/18 01:01:08;;;;;;;16.60;4.47;;;10.80;99.90;;;;;;5003724;28;20424;-68
2024/03/18 01:03:34;;;;;;;27.75;4.30;;;10.80;99.90;;;;;;4999254;28;20076;-68
2024/03/18 01:06:00;;;;;;;19.08;5.32;;;10.80;99.90;;;;;;5006571;28;20169;-68
2024/03/18 01:08:26;;;;;;;15.93;3.40;;;10.80;99.90;;;;;;5008413;28;20143;-67
2024/03/18 01:10:51;;;;;;;13.80;5.10;;;10.80;99.90;;;;;;5008039;28;20060;-68
2024/03/18 01:13:17;;;;;;;15.13;4.20;;;10.80;99.90;;;;;;5005707;28;20049;-67
2024/03/18 01:15:43;;;;;;;30.45;6.22;;;10.80;99.90;;;;;;5006984;28;20518;-68
2024/03/18 01:18:09;;;;;;;24.63;5.55;;;10.80;99.90;;;;;;5007426;28;20124;-67
2024/03/18 01:20:38;;;;;;;20.77;4.75;;;10.90;99.90;;;;;;5013345;28;20057;-68
2024/03/18 01:23:04;;;;;;;26.45;6.70;;;10.80;99.90;;;;;;5008248;28;20057;-70
2024/03/18 01:25:32;;;;;;;32.10;6.38;;;10.80;99.90;;;;;;5007306;28;20058;-68
2024/03/18 01:27:58;;;;;;;26.45;6.47;;;10.80;99.90;;;;;;5005920;28;20049;-68
2024/03/18 01:30:24;;;;;;;27.45;6.82;;;10.80;99.90;;;;;;4988732;28;20449;-68
2024/03/18 01:32:50;;;;;;;23.35;6.57;;;10.80;99.90;;;;;;5006898;28;20057;-68
2024/03/18 01:35:15;;;;;;;36.08;7.70;;;10.80;99.90;;;;;;5005115;28;20050;-68
2024/03/18 01:37:43;;;;;;;31.67;7.88;;;10.80;99.90;;;;;;5010349;28;20562;-68
2024/03/18 01:40:12;;;;;;;20.15;6.35;;;10.80;99.90;;;;;;5020046;28;20049;-67
2024/03/18 01:42:39;;;;;;;28.52;6.63;;;10.80;99.90;;;;;;5014306;28;20061;-67
2024/03/18 01:45:05;;;;;;;25.33;8.15;;;10.80;99.90;;;;;;5023216;28;20257;-68
2024/03/18 01:47:31;;;;;;;24.75;7.22;;;10.80;99.90;;;;;;5007348;28;20050;-68
2024/03/18 01:49:57;;;;;;;23.35;7.05;;;10.80;99.90;;;;;;5005401;28;20516;-68
2024/03/18 01:52:23;;;;;;;29.00;8.30;;;10.80;99.90;;;;;;4992464;28;20089;-68
2024/03/18 01:54:49;;;;;;;34.88;8.60;;;10.80;99.90;;;;;;5006452;28;20464;-68
2024/03/18 01:57:15;;;;;;;30.75;8.27;;;10.80;99.90;;;;;;5007669;28;20046;-67
2024/03/18 01:59:41;;;;;;;23.63;7.32;;;10.80;99.90;;;;;;4999081;28;20111;-67
2024/03/18 02:02:07;;;;;;;35.95;7.97;;;10.90;99.90;;;;;;5006141;28;20054;-68
2024/03/18 02:04:33;;;;;;;26.88;9.02;;;10.80;99.90;;;;;;4990718;28;20046;-68
2024/03/18 02:06:59;;;;;;;23.55;6.88;;;10.80;99.90;;;;;;5005585;28;20049;-68
2024/03/18 02:09:25;;;;;;;21.40;6.82;;;10.80;99.90;;;;;;5005036;28;20060;-68
2024/03/18 02:11:51;;;;;;;23.52;6.55;;;10.70;99.90;;;;;;5003164;28;20081;-69
2024/03/18 02:14:17;;;;;;;18.70;5.75;;;10.70;99.90;;;;;;5007367;28;20060;-68
2024/03/18 02:16:46;;;;;;;24.27;7.00;;;10.70;99.90;;;;;;5003869;28;20424;-68
2024/03/18 02:19:12;;;;;;;19.00;6.00;;;10.70;99.90;;;;;;5005831;28;20054;-67
2024/03/18 02:21:38;;;;;;;33.92;6.07;;;10.60;99.90;;;;;;5005453;28;20527;-69
2024/03/18 02:24:06;;;;;;;21.10;6.82;;;10.60;99.90;;;;;;5014719;28;20054;-68
2024/03/18 02:26:33;;;;;;;19.08;6.13;;;10.60;99.90;;;;;;5005795;28;20053;-68
2024/03/18 02:28:59;;;;;;;25.05;6.55;;;10.50;99.90;;;;;;5006581;28;20073;-68
2024/03/18 02:31:25;;;;;;;26.15;7.22;;;10.40;99.90;;;;;;5003890;28;20069;-68
2024/03/18 02:33:51;;;;;;;24.63;8.07;;;10.30;99.90;;;;;;5001088;28;20117;-68
2024/03/18 02:36:18;;;;;;;17.85;6.72;;;10.30;99.90;;;;;;4987146;28;20069;-68
2024/03/18 02:38:44;;;;;;;16.13;5.68;;;10.30;99.90;;;;;;4993545;28;20050;-68
2024/03/18 02:41:11;;;;;;;18.40;5.50;;;10.20;99.90;;;;;;5000672;28;20428;-68
2024/03/18 02:43:37;;;;;;;23.42;5.40;;;10.20;99.90;;;;;;5008161;28;20055;-69
2024/03/18 02:46:04;;;;;;;27.17;6.68;;;10.10;99.90;;;;;;5003870;28;20104;-68
2024/03/18 02:48:30;;;;;;;21.40;7.10;;;10.10;99.90;;;;;;5011293;28;20042;-68
2024/03/18 02:50:56;;;;;;;26.48;7.45;;;10.00;99.90;;;;;;5007254;28;20441;-68
2024/03/18 02:53:22;;;;;;;25.80;6.50;;;10.00;99.90;;;;;;5005664;28;20057;-68
2024/03/18 02:55:48;;;;;;;21.80;6.13;;;10.00;99.90;;;;;;5008947;28;20053;-68
2024/03/18 02:58:14;;;;;;;27.88;5.40;;;10.00;99.90;;;;;;5007888;28;20054;-68
2024/03/18 03:00:40;;;;;;;23.15;5.47;;;10.00;99.90;;;;;;5007130;28;20538;-68
2024/03/18 03:03:06;;;;;;;22.95;7.40;;;10.00;99.90;;;;;;5007163;28;20497;-67
2024/03/18 03:05:31;;;;;;;16.85;5.65;;;10.00;99.90;;;;;;5007409;28;20087;-67
2024/03/18 03:07:57;;;;;;;26.42;5.40;;;9.90;99.90;;;;;;5006781;28;20042;-69
2024/03/18 03:10:24;;;;;;;22.23;5.55;;;9.90;99.90;;;;;;5005717;28;20097;-68
2024/03/18 03:12:49;;;;;;;21.30;5.72;;;10.00;99.90;;;;;;5006244;28;20112;-68
2024/03/18 03:15:15;;;;;;;17.65;5.10;;;10.00;99.90;;;;;;5004114;28;20041;-67
2024/03/18 03:17:41;;;;;;;21.42;6.70;;;10.00;99.90;;;;;;5019947;28;20056;-67
2024/03/18 03:20:08;;;;;;;25.77;5.20;;;10.00;99.90;;;;;;5006005;28;20046;-68
2024/03/18 03:22:38;;;;;;;15.07;3.97;;;10.10;99.90;;;;;;5006132;28;20493;-67
2024/03/18 03:25:05;;;;;;;25.40;5.00;;;10.10;99.90;;;;;;5020513;28;20444;-68
2024/03/18 03:27:32;;;;;;;21.17;5.00;;;10.10;99.90;;;;;;5003166;28;20050;-67
2024/03/18 03:29:59;;;;;;;15.63;3.17;;;10.10;99.90;;;;;;5005870;28;20054;-68
2024/03/18 03:32:24;;;;;;;24.90;4.03;;;10.10;99.90;;;;;;5005833;28;20046;-68
2024/03/18 03:34:50;;;;;;;24.48;3.97;;;10.20;99.90;;;;;;5000023;28;20422;-67
2024/03/18 03:37:17;;;;;;;16.05;3.25;;;10.20;99.90;;;;;;5002857;28;20045;-67
2024/03/18 03:39:43;;;;;;;23.40;3.40;;;10.20;99.90;;;;;;5013991;28;20525;-67
2024/03/18 03:42:09;;;;;;;24.33;4.38;;;10.20;99.90;;;;;;5006925;28;20049;-68
2024/03/18 03:44:35;;;;;;;16.50;3.17;;;10.20;99.90;;;;;;5003171;28;20052;-67
2024/03/18 03:47:00;;;;;;;20.73;4.88;;;10.20;99.90;;;;;;5007881;28;20111;-68
2024/03/18 03:49:28;;;;;;;18.63;3.80;;;10.10;99.90;;;;;;5006401;28;20053;-67
2024/03/18 03:51:55;;;;;;;24.38;4.20;;;10.10;99.90;;;;;;5007202;28;20046;-68
2024/03/18 03:54:21;;;;;;;18.10;3.28;;;10.20;99.90;;;;;;5005838;28;20054;-68
2024/03/18 03:56:46;;;;;;;19.15;2.92;;;10.20;99.90;;;;;;5005219;28;20136;-68
2024/03/18 03:59:12;;;;;;;17.42;3.80;;;10.20;99.90;;;;;;5008090;28;20472;-67
2024/03/18 04:01:38;;;;;;;19.20;3.08;;;10.10;99.90;;;;;;5003433;28;20414;-67
2024/03/18 04:04:04;;;;;;;11.73;3.47;;;10.10;99.90;;;;;;5004828;28;20062;-68
2024/03/18 04:06:30;;;;;;;11.18;2.45;;;10.10;99.90;;;;;;5006161;28;20057;-67
2024/03/18 04:08:56;;;;;;;14.38;2.47;;;10.00;99.90;;;;;;5009995;28;20417;-67
2024/03/18 04:11:22;;;;;;;16.02;3.35;;;10.00;99.90;;;;;;5003704;28;20049;-67
2024/03/18 04:13:48;;;;;;;10.27;2.15;;;10.00;99.90;;;;;;5006106;28;20053;-68
2024/03/18 04:16:14;;;;;;;16.05;2.92;;;10.00;99.90;;;;;;4999680;28;20096;-68
2024/03/18 04:18:42;;;;;;;21.45;3.20;;;10.00;99.90;;;;;;5003162;28;20178;-68
2024/03/18 04:21:08;;;;;;;16.45;4.13;;;9.90;99.90;;;;;;5019049;28;20107;-68
2024/03/18 04:23:35;;;;;;;12.93;2.85;;;9.90;99.90;;;;;;5005707;28;20497;-69
2024/03/18 04:26:05;;;;;;;17.48;3.33;;;10.00;99.90;;;;;;5004211;28;20107;-69
2024/03/18 04:28:34;;;;;;;18.95;3.50;;;10.10;99.90;;;;;;5009810;28;20333;-68
2024/03/18 04:31:05;;;;;;;19.73;4.28;;;10.10;99.90;;;;;;5008529;28;20062;-69
2024/03/18 04:33:34;;;;;;;14.05;3.80;;;10.00;99.90;;;;;;5006362;28;20057;-68
2024/03/18 04:36:01;;;;;;;13.35;2.13;;;10.00;99.90;;;;;;5025172;28;20412;-70
2024/03/18 04:38:28;;;;;;;16.45;3.33;;;10.10;99.90;;;;;;5008860;28;20046;-69
2024/03/18 04:40:54;;;;;;;13.02;2.33;;;10.10;99.90;;;;;;5007898;28;20444;-69
2024/03/18 04:43:20;;;;;;;15.43;2.92;;;10.10;99.90;;;;;;5025740;28;20064;-68
2024/03/18 04:45:46;;;;;;;14.98;2.72;;;10.00;99.90;;;;;;5007178;28;20061;-69
2024/03/18 04:48:12;;;;;;;17.27;3.65;;;10.00;99.90;;;;;;5006615;28;20046;-68
2024/03/18 04:50:38;;;;;;;19.40;2.78;;;10.00;99.90;;;;;;5009287;28;20061;-69
2024/03/18 04:53:04;;;;;;;17.45;2.92;;;9.90;99.90;;;;;;5009337;28;20389;-69
2024/03/18 04:55:30;;;;;;;15.80;4.70;;;9.90;99.90;;;;;;4997713;28;20058;-69
2024/03/18 04:57:55;;;;;;;18.65;4.00;;;9.90;99.90;;;;;;5006694;28;20060;-68
2024/03/18 05:00:24;;;;;;;12.30;2.85;;;9.90;99.90;;;;;;5005611;28;20611;-69
2024/03/18 05:02:50;;;;;;;17.63;4.22;;;9.80;99.90;;;;;;5024615;28;20053;-69
2024/03/18 05:05:17;;;;;;;14.88;2.92;;;9.80;99.90;;;;;;5010754;28;20045;-68
2024/03/18 05:07:43;;;;;;;12.73;3.38;;;9.80;99.90;;;;;;5007530;28;20165;-68
2024/03/18 05:10:10;;;;;;;16.83;3.47;;;9.70;99.90;;;;;;5007052;28;20481;-69
2024/03/18 05:12:39;;;;;;;16.50;3.20;;;9.70;99.90;;;;;;5007914;28;20151;-68
2024/03/18 05:15:08;;;;;;;16.55;4.07;;;9.70;99.90;;;;;;5015839;28;20049;-69
2024/03/18 05:17:35;;;;;;;18.42;3.00;;;9.60;99.90;;;;;;5011396;28;20090;-68
2024/03/18 05:20:00;;;;;;;18.17;3.67;;;9.60;99.90;;;;;;5005308;28;20042;-68
2024/03/18 05:22:27;;;;;;;19.65;3.03;;;9.60;99.90;;;;;;5005807;28;20058;-68
2024/03/18 05:24:53;;;;;;;11.15;2.50;;;9.60;99.90;;;;;;5004438;28;20061;-69
2024/03/18 05:27:19;;;;;;;17.48;4.32;;;9.50;99.90;;;;;;5021700;28;20200;-68
2024/03/18 05:29:45;;;;;;;17.58;3.88;;;9.50;99.90;;;;;;5006421;28;20037;-69
2024/03/18 05:32:16;;;;;;;18.73;2.90;;;9.50;99.90;;;;;;5005987;28;20057;-68
2024/03/18 05:34:43;;;;;;;13.23;2.47;;;9.50;99.90;;;;;;5011187;28;20049;-69
2024/03/18 05:37:11;;;;;;;17.15;2.78;;;9.40;99.90;;;;;;5007217;28;20046;-68
2024/03/18 05:39:38;;;;;;;13.70;2.78;;;9.40;99.90;;;;;;5006630;28;20073;-69
2024/03/18 05:42:04;;;;;;;12.27;2.63;;;9.50;99.90;;;;;;5007612;28;20409;-69
2024/03/18 05:44:30;;;;;;;15.30;2.75;;;9.40;99.90;;;;;;5012079;28;20056;-70
2024/03/18 05:46:56;;;;;;;13.93;2.58;;;9.40;99.90;;;;;;5009669;28;20054;-69
2024/03/18 05:49:22;;;;;;;18.35;3.70;;;9.40;99.90;;;;;;5007877;28;20107;-68
2024/03/18 05:51:48;;;;;;;8.95;2.05;;;9.40;99.90;;;;;;4991637;28;20057;-69
2024/03/18 05:54:17;;;;;;;22.08;2.95;;;9.40;99.90;;;;;;5008316;28;20120;-68
2024/03/18 05:56:43;;;;;;;19.83;2.75;;;9.40;99.90;;;;;;5006743;28;20056;-68
2024/03/18 05:59:12;;;;;;;14.90;3.10;;;9.40;99.90;;;;;;5003595;28;20046;-68
2024/03/18 06:01:40;;;;;;;15.82;2.75;;;9.40;99.90;;;;;;5003748;28;20406;-68
2024/03/18 06:04:07;;;;;;;20.40;3.42;;;9.40;99.90;;;;;;5004310;28;20073;-69
2024/03/18 06:06:33;;;;;;;13.80;2.67;;;9.40;99.90;;;;;;5008453;28;20054;-69
2024/03/18 06:09:00;;;;;;;11.05;2.80;;;9.40;99.90;;;;;;5006087;28;20424;-69
2024/03/18 06:11:26;;;;;;;18.48;3.13;;;9.40;99.90;;;;;;5006712;28;20505;-68
2024/03/18 06:13:52;;;;;;;10.48;2.78;;;9.40;99.90;;;;;;5004540;28;20076;-68
2024/03/18 06:16:18;;;;;;;15.63;4.10;;;9.40;99.90;;;;;;5006925;28;20100;-67
2024/03/18 06:18:44;;;;;;;15.30;3.10;;;9.40;99.90;;;;;;5010308;28;20483;-68
2024/03/18 06:21:19;;;;;;;17.13;2.95;;;9.30;99.90;;;;;;5023046;28;20555;-67
2024/03/18 06:23:51;;;;;;;18.52;3.55;;;9.30;99.90;;;;;;5004183;28;20077;-68
2024/03/18 06:26:17;;;;;;;16.08;3.55;;;9.30;99.90;;;;;;5004354;28;20053;-67
2024/03/18 06:28:44;;;;;;;22.50;4.30;;;9.30;99.90;;;;;;4989229;28;20566;-67
2024/03/18 06:31:13;;;;;;;14.68;4.10;;;9.20;99.90;;;;;;5005325;28;20053;-67
2024/03/18 06:33:39;;;;;;;16.13;3.28;;;9.20;99.90;;;;;;5005568;28;20084;-67
2024/03/18 06:36:11;;;;;;;15.50;2.60;;;9.30;99.90;;;;;;4999846;28;20054;-67
2024/03/18 06:38:38;;;;;;;15.68;3.42;;;9.20;99.90;;;;;;5003453;28;20509;-67
2024/03/18 06:41:04;;;;;;;18.45;3.30;;;9.30;99.90;;;;;;5000410;28;20061;-67
2024/03/18 06:43:33;;;;;;;16.98;3.28;;;9.30;99.90;;;;;;5001102;28;20061;-68
2024/03/18 06:45:59;;;;;;;12.13;2.63;;;9.40;99.90;;;;;;5012154;28;20176;-69
2024/03/18 06:48:25;;;;;;;14.63;2.50;;;9.30;99.90;;;;;;5000985;28;20395;-69
2024/03/18 06:50:51;;;;;;;15.07;4.13;;;9.30;99.90;;;;;;5002327;28;20123;-68
2024/03/18 06:53:17;;;;;;;20.35;3.30;;;9.40;99.90;;;;;;5018567;28;20070;-67
2024/03/18 06:55:44;;;;;;;21.83;3.78;;;9.40;99.90;;;;;;5002478;28;20065;-67
2024/03/18 06:58:11;;;;;;;18.77;3.35;;;9.40;99.90;;;;;;5008507;28;20042;-67
2024/03/18 07:00:37;;;;;;;12.73;4.20;;;9.40;99.90;;;;;;5000557;28;20624;-67
2024/03/18 07:03:03;;;;;;;15.40;4.28;;;9.50;99.90;;;;;;4998355;28;20122;-68
2024/03/18 07:05:29;;;;;;;17.83;3.80;;;9.50;99.90;;;;;;5003920;28;20058;-67
2024/03/18 07:07:55;;;;;;;10.18;2.38;;;9.60;99.90;;;;;;5008366;28;20156;-67
2024/03/18 07:10:21;;;;;;;13.35;2.67;;;9.60;99.90;;;;;;5007356;28;20064;-67
2024/03/18 07:12:46;;;;;;;10.93;2.38;;;9.60;99.90;;;;;;5004681;28;20112;-67
2024/03/18 07:15:16;;;;;;;11.82;2.65;;;9.70;99.90;;;;;;4975868;28;20505;-68
2024/03/18 07:17:43;;;;;;;15.65;3.15;;;9.70;99.90;;;;;;5006787;28;20050;-70
2024/03/18 07:20:10;;;;;;;17.75;2.72;;;9.70;99.90;;;;;;5010861;28;20419;-67
2024/03/18 07:22:37;;;;;;;17.38;2.90;;;9.80;99.90;;;;;;5002973;28;20377;-68
2024/03/18 07:25:03;;;;;;;9.65;2.70;;;9.70;99.90;;;;;;5004623;28;20046;-70
2024/03/18 07:27:29;;;;;;;14.48;3.17;;;9.70;99.90;;;;;;4988588;28;20073;-68
2024/03/18 07:29:56;;;;;;;19.13;4.30;;;9.70;99.90;;;;;;4997406;28;20057;-68
2024/03/18 07:32:26;;;;;;;15.55;2.83;;;9.60;99.90;;;;;;5007107;28;20049;-68
2024/03/18 07:34:52;;;;;;;11.43;2.10;;;9.70;99.90;;;;;;5005485;28;20256;-68
2024/03/18 07:37:18;;;;;;;18.38;2.80;;;9.70;99.90;;;;;;5004907;28;20064;-66
2024/03/18 07:39:45;;;;;;;14.88;2.95;;;9.70;99.90;;;;;;5007742;28;20050;-68
2024/03/18 07:42:11;;;;;;;15.57;3.75;;;9.60;99.90;;;;;;5006513;28;20054;-67
2024/03/18 07:44:38;;;;;;;10.27;3.13;;;9.70;99.90;;;;;;5006630;28;20042;-69
2024/03/18 07:47:04;;;;;;;6.80;2.38;;;9.60;99.90;;;;;;5003278;28;20054;-68
2024/03/18 07:49:30;;;;;;;11.40;3.20;;;9.60;99.90;;;;;;5007583;28;20050;-68
2024/03/18 07:51:56;;;;;;;13.70;3.45;;;9.70;99.90;;;;;;5001108;28;20088;-68
2024/03/18 07:54:22;;;;;;;16.35;3.53;;;9.70;99.90;;;;;;4988998;28;20417;-70
2024/03/18 07:56:48;;;;;;;12.63;2.30;;;9.80;99.90;;;;;;5024406;28;20077;-67
2024/03/18 07:59:14;;;;;;;14.65;2.53;;;9.90;99.90;;;;;;5007836;28;20049;-68
2024/03/18 08:01:40;;;;;;;12.60;2.50;;;9.90;99.90;;;;;;5001305;28;20437;-68
2024/03/18 08:04:06;;;;;;;21.25;4.00;;;10.00;99.90;;;;;;5005677;28;20046;-68
2024/03/18 08:06:32;;;;;;;20.45;3.00;;;10.10;99.90;;;;;;4999125;28;20057;-68
2024/03/18 08:08:58;;;;;;;14.05;2.78;;;10.20;99.90;;;;;;5005588;28;20472;-68
2024/03/18 08:11:23;;;;;;;17.65;2.85;;;10.20;99.90;;;;;;5005987;28;20497;-68
2024/03/18 08:13:49;;;;;;;14.23;2.08;;;10.30;99.90;;;;;;5003453;28;20173;-68
2024/03/18 08:16:15;;;;;;;9.38;2.90;;;10.30;99.90;;;;;;5000132;28;20065;-68
2024/03/18 08:18:41;;;;;;;11.75;2.53;;;10.40;99.90;;;;;;5019857;28;20042;-69
2024/03/18 08:21:07;;;;;;;19.73;2.90;;;10.40;99.90;;;;;;5001551;28;20053;-68
2024/03/18 08:23:33;;;;;;;8.50;1.77;;;10.60;99.90;;;;;;5005039;28;20053;-68
2024/03/18 08:25:59;;;;;;;15.75;2.35;;;10.60;99.90;;;;;;5002174;28;20125;-68
2024/03/18 08:28:25;;;;;;;11.82;3.10;;;10.80;99.90;;;;;;4988812;28;20190;-67
2024/03/18 08:30:50;;;;;;;12.70;2.22;;;10.90;99.90;;;;;;5004804;28;20058;-66
2024/03/18 08:33:16;;;;;;;16.85;2.40;;;11.00;99.90;;;;;;5000882;28;20232;-67
2024/03/18 08:35:42;;;;;;;14.07;2.30;;;11.10;99.90;;;;;;5002602;28;20053;-66
2024/03/18 08:38:08;;;;;;;7.85;1.67;;;11.20;99.90;;;;;;5005208;28;20092;-66
2024/03/18 08:40:34;;;;;;;8.88;2.03;;;11.20;99.90;;;;;;5005216;28;20100;-65
2024/03/18 08:42:59;;;;;;;16.95;1.90;;;11.20;99.90;;;;;;4997547;28;20054;-65
2024/03/18 08:45:25;;;;;;;17.65;2.17;;;11.20;99.90;;;;;;4998972;28;20085;-66
2024/03/18 08:47:51;;;;;;;15.85;2.00;;;11.40;99.90;;;;;;5004680;28;20095;-67
2024/03/18 08:50:17;;;;;;;14.38;1.85;;;11.50;99.90;;;;;;5004249;28;20069;-67
2024/03/18 08:52:43;;;;;;;10.02;1.77;;;11.60;99.90;;;;;;5005254;28;20417;-65
2024/03/18 08:55:10;;;;;;;8.75;1.52;;;11.50;99.90;;;;;;5003147;28;20038;-67
2024/03/18 08:57:36;;;;;;;15.70;2.42;;;11.60;99.90;;;;;;5003896;28;20046;-65
2024/03/18 09:00:03;;;;;;;8.38;2.28;;;11.70;99.90;;;;;;5004003;28;20375;-67
2024/03/18 09:02:29;;;;;;;10.15;1.70;;;11.80;99.90;;;;;;5003675;28;20058;-65
2024/03/18 09:04:55;;;;;;;9.93;2.85;;;11.80;99.90;;;;;;5005217;28;20056;-68
2024/03/18 09:07:21;;;;;;;7.88;1.27;;;11.70;99.90;;;;;;5004655;28;20493;-65
2024/03/18 09:09:47;;;;;;;5.18;1.23;;;11.70;99.90;;;;;;5004752;28;20088;-67
2024/03/18 09:12:13;;;;;;;8.20;1.58;;;11.70;99.90;;;;;;5003424;28;20054;-68
2024/03/18 09:14:38;;;;;;;4.78;1.30;;;11.70;99.90;;;;;;5020440;28;20046;-66
2024/03/18 09:17:05;;;;;;;7.10;1.83;;;11.70;99.90;;;;;;5008945;28;20058;-67
2024/03/18 09:19:39;;;;;;;11.77;4.32;;;11.80;99.90;;;;;;5010420;28;20324;-67
2024/03/18 09:22:08;;;;;;;8.43;1.50;;;12.00;99.90;;;;;;5006881;28;20050;-66
2024/03/18 09:24:35;;;;;;;8.57;1.73;;;12.20;99.90;;;;;;5001450;28;20453;-66
2024/03/18 09:27:02;;;;;;;7.68;2.45;;;12.20;99.90;;;;;;5001311;28;20075;-65
2024/03/18 09:29:31;;;;;;;13.70;1.98;;;12.30;99.90;;;;;;4998960;28;20564;-67
2024/03/18 09:31:56;;;;;;;5.85;1.73;;;12.40;99.90;;;;;;5003190;28;20054;-66
2024/03/18 09:34:22;;;;;;;5.80;1.25;;;12.60;99.90;;;;;;5007247;28;20081;-66
2024/03/18 09:36:48;;;;;;;6.38;1.30;;;12.60;99.90;;;;;;5007033;28;20060;-65
2024/03/18 09:39:14;;;;;;;7.20;1.05;;;12.70;99.90;;;;;;5006983;28;20050;-68
2024/03/18 09:41:40;;;;;;;13.18;1.60;;;12.70;99.90;;;;;;5006359;28;20057;-67
2024/03/18 09:44:08;;;;;;;3.28;0.80;;;12.80;99.90;;;;;;5005480;28;20048;-66
2024/03/18 09:46:34;;;;;;;9.60;1.67;;;12.70;99.90;;;;;;5006548;28;20099;-66
2024/03/18 09:49:00;;;;;;;5.53;1.15;;;12.70;99.90;;;;;;4990793;28;20489;-66
2024/03/18 09:51:26;;;;;;;5.25;1.58;;;12.80;99.90;;;;;;5006767;28;20425;-65
2024/03/18 09:53:52;;;;;;;6.35;1.08;;;12.80;99.90;;;;;;4986756;28;21073;-66
2024/03/18 09:56:19;;;;;;;5.95;1.08;;;12.80;99.90;;;;;;4990312;28;20511;-66
2024/03/18 09:58:45;;;;;;;14.55;1.33;;;12.90;99.90;;;;;;4999284;28;20560;-66
2024/03/18 10:01:12;;;;;;;4.78;1.63;;;12.90;99.90;;;;;;5008171;28;20124;-66
2024/03/18 10:03:41;;;;;;;8.60;1.52;;;13.00;99.90;;;;;;5005243;28;20414;-65
2024/03/18 10:06:08;;;;;;;5.10;1.13;;;13.00;99.90;;;;;;5004211;28;20053;-65
2024/03/18 10:08:37;;;;;;;6.75;1.25;;;13.00;99.90;;;;;;5005888;28;20042;-66
2024/03/18 10:11:02;;;;;;;7.45;1.33;;;13.00;99.90;;;;;;5003207;28;20091;-65
2024/03/18 10:13:29;;;;;;;4.95;1.05;;;13.00;99.90;;;;;;5004413;28;20073;-66
2024/03/18 10:15:55;;;;;;;5.72;1.60;;;13.10;99.90;;;;;;5008622;28;20042;-66
2024/03/18 10:18:21;;;;;;;8.13;1.33;;;13.20;99.90;;;;;;5006402;28;20452;-65
2024/03/18 10:20:47;;;;;;;6.88;0.90;;;13.30;99.90;;;;;;5002792;28;20273;-66
2024/03/18 10:23:13;;;;;;;2.58;1.35;;;13.40;99.90;;;;;;5006516;28;20057;-66
2024/03/18 10:25:40;;;;;;;6.10;1.23;;;13.40;99.90;;;;;;5004904;28;20525;-67
2024/03/18 10:28:06;;;;;;;7.53;1.38;;;13.40;99.90;;;;;;5007501;28;20057;-66
2024/03/18 10:30:34;;;;;;;7.25;1.40;;;13.40;99.90;;;;;;5007055;28;20053;-66
2024/03/18 10:33:05;;;;;;;8.95;1.42;;;13.50;99.90;;;;;;5007477;28;20076;-66
2024/03/18 10:35:34;;;;;;;8.85;1.60;;;13.50;99.90;;;;;;4989365;28;20046;-66
2024/03/18 10:38:01;;;;;;;5.50;1.23;;;13.50;99.90;;;;;;5008469;28;20049;-66
2024/03/18 10:40:34;;;;;;;8.05;1.40;;;13.50;99.90;;;;;;5001090;28;20403;-65
2024/03/18 10:43:02;;;;;;;;;;;13.50;99.90;;;;;;4991687;28;20489;-66
2024/03/18 10:45:28;;;;;;;3.42;0.90;;;13.40;99.90;;;;;;5005670;28;19996;-66
2024/03/18 10:48:02;;;;;;;2.72;1.02;;;13.50;99.90;;;;;;4990391;28;20130;-65
2024/03/18 10:50:28;;;;;;;4.40;1.05;;;13.30;99.90;;;;;;5008022;28;20062;-65
2024/03/18 10:52:55;;;;;;;5.68;1.35;;;13.30;99.90;;;;;;5002958;28;20057;-65
2024/03/18 10:55:22;;;;;;;3.78;1.90;;;13.30;99.90;;;;;;5005256;28;20069;-65
2024/03/18 10:57:52;;;;;;;7.05;1.92;;;13.30;99.90;;;;;;5006469;28;20042;-67
2024/03/18 11:00:19;;;;;;;5.32;1.98;;;13.40;99.90;;;;;;5004347;28;20050;-66
2024/03/18 11:03:14;;;;;;;5.03;1.85;;;13.50;99.90;;;;;;5005630;28;20054;-66
2024/03/18 11:05:49;;;;;;;8.55;2.35;;;13.60;99.90;;;;;;5001211;28;20104;-66
2024/03/18 11:08:16;;;;;;;5.00;1.92;;;13.70;99.90;;;;;;5005099;28;20417;-66
2024/03/18 11:10:43;;;;;;;5.80;1.85;;;13.90;99.90;;;;;;5006622;28;20046;-66
2024/03/18 11:13:13;;;;;;;10.60;2.20;;;14.00;99.90;;;;;;5008426;28;20054;-66
2024/03/18 11:15:48;;;;;;;7.03;2.50;;;14.10;99.90;;;;;;4995064;28;20108;-66
2024/03/18 11:18:27;;;;;;;4.88;1.98;;;14.10;99.90;;;;;;5005972;28;20389;-65
2024/03/18 11:20:54;;;;;;;6.22;1.75;;;14.30;99.90;;;;;;5004027;28;20485;-65
2024/03/18 11:23:25;;;;;;;10.48;2.38;;;14.30;99.90;;;;;;5004471;28;20459;-65
2024/03/18 11:25:55;;;;;;;6.88;1.90;;;14.20;99.90;;;;;;5006520;28;20060;-66
2024/03/18 11:28:43;;;;;;;8.85;1.60;;;14.20;99.90;;;;;;5004152;28;20054;-66
2024/03/18 11:31:10;;;;;;;5.82;1.52;;;14.20;99.90;;;;;;5005539;28;20046;-65
2024/03/18 11:33:38;;;;;;;8.02;1.77;;;14.10;99.90;;;;;;5006488;28;20418;-65
2024/03/18 11:36:23;;;;;;;7.60;1.55;;;13.90;99.90;;;;;;5005087;28;20582;-66
2024/03/18 11:38:49;;;;;;;4.88;1.75;;;13.90;99.90;;;;;;5004683;28;20103;-66
2024/03/18 11:41:15;;;;;;;7.05;1.20;;;13.90;99.90;;;;;;5006804;28;20046;-66
2024/03/18 11:43:47;;;;;;;7.00;2.13;;;14.00;99.90;;;;;;5021608;28;20285;-66
2024/03/18 11:46:17;;;;;;;5.93;1.83;;;14.20;99.90;;;;;;5005489;28;20100;-65
2024/03/18 11:48:43;;;;;;;5.07;1.35;;;14.40;99.90;;;;;;5006600;28;20052;-65
2024/03/18 11:51:11;;;;;;;5.00;0.80;;;14.50;99.90;;;;;;5006229;28;20471;-67
2024/03/18 11:53:37;;;;;;;5.70;1.13;;;14.50;99.90;;;;;;5007857;28;20050;-66
2024/03/18 11:56:03;;;;;;;5.22;1.48;;;14.50;99.90;;;;;;5002035;28;20053;-66
2024/03/18 11:58:29;;;;;;;3.17;1.08;;;14.50;99.90;;;;;;4990819;28;20050;-67
2024/03/18 12:00:55;;;;;;;4.95;1.10;;;14.60;99.90;;;;;;4990888;28;20115;-67
2024/03/18 12:03:21;;;;;;;3.17;1.50;;;14.60;99.90;;;;;;5010129;28;20050;-66
2024/03/18 12:05:47;;;;;;;5.00;1.40;;;14.70;99.90;;;;;;5000892;28;20056;-66
2024/03/18 12:08:19;;;;;;;4.88;0.82;;;14.80;99.90;;;;;;5005356;28;20046;-66
2024/03/18 12:10:52;;;;;;;4.18;0.98;;;14.90;99.90;;;;;;4992503;28;20053;-66
2024/03/18 12:13:19;;;;;;;5.63;1.27;;;15.00;99.90;;;;;;5007750;28;20485;-66
2024/03/18 12:15:45;;;;;;;5.70;1.20;;;15.00;99.90;;;;;;5007424;28;20046;-65
2024/03/18 12:18:11;;;;;;;6.13;1.00;;;15.00;99.90;;;;;;5008080;28;20532;-65
2024/03/18 12:20:36;;;;;;;2.92;0.75;;;15.00;99.90;;;;;;5005646;28;20049;-66
2024/03/18 12:23:04;;;;;;;3.45;0.70;;;15.10;99.90;;;;;;4990661;28;20053;-65
2024/03/18 12:28:42;;;;;;;6.80;1.63;;;15.20;99.90;;;;;;5012913;28;20069;-65
2024/03/18 12:31:15;;;;;;;3.35;0.77;;;15.30;99.90;;;;;;4995521;28;20050;-67
2024/03/18 12:33:44;;;;;;;4.78;0.73;;;15.30;99.90;;;;;;5007826;28;20513;-66
2024/03/18 12:36:17;;;;;;;5.03;1.02;;;15.30;99.90;;;;;;5003663;28;20535;-67
2024/03/18 12:38:50;;;;;;;3.47;0.77;;;15.30;99.90;;;;;;5005185;28;20045;-66
2024/03/18 12:41:17;;;;;;;2.55;0.90;;;15.20;99.90;;;;;;5004858;28;20050;-66
2024/03/18 12:43:44;;;;;;;4.05;1.05;;;15.20;99.90;;;;;;5005137;28;20046;-66
2024/03/18 12:46:16;;;;;;;6.78;1.50;;;15.20;99.90;;;;;;5001667;28;20061;-67
2024/03/18 12:48:43;;;;;;;1.65;0.60;;;15.30;99.90;;;;;;5007847;28;20119;-66